sensor_id;sensor_type;location;lat;lon;timestamp;noise_LAeq;noise_LA_min;noise_LA_max;noise_LA01;noise_LA95
66458;Laerm;56835;52.198;4.826;2023-04-06T00:00:03;55.23;53.24;56.70;;
66458;Laerm;56835;52.198;4.826;2023-04-06T00:00:14;55.16;53.44;56.68;;
66458;Laerm;56835;52.198;4.826;2023-04-06T00:00:25;55.19;53.11;56.57;;
66458;Laerm;56835;52.198;4.826;2023-04-06T00:00:36;55.20;53.43;56.44;;
66458;Laerm;56835;52.198;4.826;2023-04-06T00:00:47;55.22;53.08;56.64;;
66458;Laerm;56835;52.198;4.826;2023-04-06T00:00:57;55.18;53.43;56.47;;
66458;Laerm;56835;52.198;4.826;2023-04-06T00:01:08;55.22;53.16;57.12;;
66458;Laerm;56835;52.198;4.826;2023-04-06T00:01:18;55.19;52.93;56.69;;
66458;Laerm;56835;52.198;4.826;2023-04-06T00:01:29;55.27;53.29;56.61;;
66458;Laerm;56835;52.198;4.826;2023-04-06T00:01:39;55.24;53.29;57.19;;
66458;Laerm;56835;52.198;4.826;2023-04-06T00:01:49;55.17;53.15;56.62;;
66458;Laerm;56835;52.198;4.826;2023-04-06T00:02:00;55.12;53.41;56.66;;
66458;Laerm;56835;52.198;4.826;2023-04-06T00:02:10;55.12;53.04;56.27;;
66458;Laerm;56835;52.198;4.826;2023-04-06T00:02:20;55.23;53.75;56.79;;
66458;Laerm;56835;52.198;4.826;2023-04-06T00:02:31;55.19;53.27;56.42;;
66458;Laerm;56835;52.198;4.826;2023-04-06T00:02:41;55.22;53.19;56.63;;
66458;Laerm;56835;52.198;4.826;2023-04-06T00:02:51;55.24;53.19;56.91;;
66458;Laerm;56835;52.198;4.826;2023-04-06T00:03:02;55.23;53.41;56.47;;
66458;Laerm;56835;52.198;4.826;2023-04-06T00:03:12;55.18;53.36;56.73;;
66458;Laerm;56835;52.198;4.826;2023-04-06T00:03:23;55.20;52.84;56.82;;
66458;Laerm;56835;52.198;4.826;2023-04-06T00:03:33;55.22;53.27;57.00;;
66458;Laerm;56835;52.198;4.826;2023-04-06T00:03:44;55.11;53.19;57.00;;
66458;Laerm;56835;52.198;4.826;2023-04-06T00:03:54;55.21;53.46;56.61;;
66458;Laerm;56835;52.198;4.826;2023-04-06T00:04:04;55.18;53.43;56.84;;
66458;Laerm;56835;52.198;4.826;2023-04-06T00:04:15;55.28;53.69;56.88;;
66458;Laerm;56835;52.198;4.826;2023-04-06T00:04:25;55.21;53.24;56.43;;
66458;Laerm;56835;52.198;4.826;2023-04-06T00:04:36;55.23;53.56;56.56;;
66458;Laerm;56835;52.198;4.826;2023-04-06T00:04:47;55.18;53.20;56.69;;
66458;Laerm;56835;52.198;4.826;2023-04-06T00:04:57;55.19;52.79;56.84;;
66458;Laerm;56835;52.198;4.826;2023-04-06T00:05:07;55.24;53.54;56.62;;
66458;Laerm;56835;52.198;4.826;2023-04-06T00:05:18;55.19;53.20;56.70;;
66458;Laerm;56835;52.198;4.826;2023-04-06T00:05:29;55.23;53.25;56.61;;
66458;Laerm;56835;52.198;4.826;2023-04-06T00:05:41;55.20;53.22;57.46;;
66458;Laerm;56835;52.198;4.826;2023-04-06T00:05:51;55.24;53.50;56.70;;
66458;Laerm;56835;52.198;4.826;2023-04-06T00:06:01;55.18;53.25;57.18;;
66458;Laerm;56835;52.198;4.826;2023-04-06T00:06:11;55.15;53.00;56.89;;
66458;Laerm;56835;52.198;4.826;2023-04-06T00:06:22;55.25;53.54;56.72;;
66458;Laerm;56835;52.198;4.826;2023-04-06T00:06:32;55.22;53.52;56.78;;
66458;Laerm;56835;52.198;4.826;2023-04-06T00:06:43;55.14;53.47;56.55;;
66458;Laerm;56835;52.198;4.826;2023-04-06T00:06:53;55.22;53.67;56.69;;
66458;Laerm;56835;52.198;4.826;2023-04-06T00:07:03;55.20;52.81;56.95;;
66458;Laerm;56835;52.198;4.826;2023-04-06T00:07:14;55.14;52.87;56.72;;
66458;Laerm;56835;52.198;4.826;2023-04-06T00:07:24;55.13;53.33;56.49;;
66458;Laerm;56835;52.198;4.826;2023-04-06T00:07:35;55.25;52.87;56.75;;
66458;Laerm;56835;52.198;4.826;2023-04-06T00:07:45;55.16;53.38;56.75;;
66458;Laerm;56835;52.198;4.826;2023-04-06T00:07:56;55.09;53.29;56.37;;
66458;Laerm;56835;52.198;4.826;2023-04-06T00:08:07;55.14;53.26;56.41;;
66458;Laerm;56835;52.198;4.826;2023-04-06T00:08:17;55.22;53.41;56.44;;
66458;Laerm;56835;52.198;4.826;2023-04-06T00:08:28;55.16;53.14;56.46;;
66458;Laerm;56835;52.198;4.826;2023-04-06T00:08:38;55.19;53.16;56.52;;
66458;Laerm;56835;52.198;4.826;2023-04-06T00:08:48;55.26;53.08;56.76;;
66458;Laerm;56835;52.198;4.826;2023-04-06T00:08:59;55.31;53.19;56.68;;
66458;Laerm;56835;52.198;4.826;2023-04-06T00:09:10;55.30;53.69;56.92;;
66458;Laerm;56835;52.198;4.826;2023-04-06T00:09:20;55.26;53.15;56.63;;
66458;Laerm;56835;52.198;4.826;2023-04-06T00:09:30;55.12;53.34;56.71;;
66458;Laerm;56835;52.198;4.826;2023-04-06T00:09:40;55.14;53.36;56.94;;
66458;Laerm;56835;52.198;4.826;2023-04-06T00:09:51;55.18;52.84;56.78;;
66458;Laerm;56835;52.198;4.826;2023-04-06T00:10:01;55.15;53.28;56.66;;
66458;Laerm;56835;52.198;4.826;2023-04-06T00:10:12;55.17;53.36;56.84;;
66458;Laerm;56835;52.198;4.826;2023-04-06T00:10:22;55.18;53.46;56.56;;
66458;Laerm;56835;52.198;4.826;2023-04-06T00:10:32;55.16;53.56;56.79;;
66458;Laerm;56835;52.198;4.826;2023-04-06T00:10:43;55.14;52.73;56.84;;
66458;Laerm;56835;52.198;4.826;2023-04-06T00:10:53;55.15;52.77;56.69;;
66458;Laerm;56835;52.198;4.826;2023-04-06T00:11:03;55.10;53.16;56.41;;
66458;Laerm;56835;52.198;4.826;2023-04-06T00:11:14;55.20;53.05;56.65;;
66458;Laerm;56835;52.198;4.826;2023-04-06T00:11:26;55.13;53.38;56.60;;
66458;Laerm;56835;52.198;4.826;2023-04-06T00:11:37;55.23;53.18;56.91;;
66458;Laerm;56835;52.198;4.826;2023-04-06T00:11:47;55.25;53.31;56.73;;
66458;Laerm;56835;52.198;4.826;2023-04-06T00:11:57;55.27;53.07;56.57;;
66458;Laerm;56835;52.198;4.826;2023-04-06T00:12:08;55.27;53.26;56.72;;
66458;Laerm;56835;52.198;4.826;2023-04-06T00:12:18;55.28;53.28;56.47;;
66458;Laerm;56835;52.198;4.826;2023-04-06T00:12:28;55.18;53.71;56.70;;
66458;Laerm;56835;52.198;4.826;2023-04-06T00:12:38;55.13;53.09;56.39;;
66458;Laerm;56835;52.198;4.826;2023-04-06T00:12:49;55.15;53.05;56.63;;
66458;Laerm;56835;52.198;4.826;2023-04-06T00:12:59;55.14;53.15;56.37;;
66458;Laerm;56835;52.198;4.826;2023-04-06T00:13:10;55.06;53.26;56.62;;
66458;Laerm;56835;52.198;4.826;2023-04-06T00:13:20;55.17;53.26;56.63;;
66458;Laerm;56835;52.198;4.826;2023-04-06T00:13:31;55.14;53.46;56.88;;
66458;Laerm;56835;52.198;4.826;2023-04-06T00:13:41;55.12;52.91;56.57;;
66458;Laerm;56835;52.198;4.826;2023-04-06T00:13:51;55.16;52.90;56.46;;
66458;Laerm;56835;52.198;4.826;2023-04-06T00:14:01;55.10;53.03;56.36;;
66458;Laerm;56835;52.198;4.826;2023-04-06T00:14:12;55.07;52.49;56.55;;
66458;Laerm;56835;52.198;4.826;2023-04-06T00:14:22;55.11;53.36;56.45;;
66458;Laerm;56835;52.198;4.826;2023-04-06T00:14:32;55.08;52.87;56.39;;
66458;Laerm;56835;52.198;4.826;2023-04-06T00:14:42;55.17;53.44;56.54;;
66458;Laerm;56835;52.198;4.826;2023-04-06T00:14:53;55.09;52.96;56.62;;
66458;Laerm;56835;52.198;4.826;2023-04-06T00:15:03;55.11;53.45;56.17;;
66458;Laerm;56835;52.198;4.826;2023-04-06T00:15:15;55.05;53.09;56.62;;
66458;Laerm;56835;52.198;4.826;2023-04-06T00:15:26;55.13;53.24;56.50;;
66458;Laerm;56835;52.198;4.826;2023-04-06T00:15:36;55.11;53.40;56.78;;
66458;Laerm;56835;52.198;4.826;2023-04-06T00:15:46;55.10;53.30;56.40;;
66458;Laerm;56835;52.198;4.826;2023-04-06T00:15:56;55.14;53.00;56.36;;
66458;Laerm;56835;52.198;4.826;2023-04-06T00:16:07;55.04;53.00;56.61;;
66458;Laerm;56835;52.198;4.826;2023-04-06T00:16:17;55.11;52.79;56.25;;
66458;Laerm;56835;52.198;4.826;2023-04-06T00:16:28;55.18;53.44;56.88;;
66458;Laerm;56835;52.198;4.826;2023-04-06T00:16:38;55.17;53.50;56.59;;
66458;Laerm;56835;52.198;4.826;2023-04-06T00:16:48;55.20;53.32;56.51;;
66458;Laerm;56835;52.198;4.826;2023-04-06T00:16:59;55.10;53.26;56.59;;
66458;Laerm;56835;52.198;4.826;2023-04-06T00:17:09;55.03;52.56;56.61;;
66458;Laerm;56835;52.198;4.826;2023-04-06T00:17:19;55.15;53.11;56.57;;
66458;Laerm;56835;52.198;4.826;2023-04-06T00:17:30;55.23;52.47;56.58;;
66458;Laerm;56835;52.198;4.826;2023-04-06T00:17:40;55.21;52.59;56.73;;
66458;Laerm;56835;52.198;4.826;2023-04-06T00:17:50;55.26;52.78;56.78;;
66458;Laerm;56835;52.198;4.826;2023-04-06T00:18:01;55.17;53.17;56.44;;
66458;Laerm;56835;52.198;4.826;2023-04-06T00:18:11;55.06;52.84;56.56;;
66458;Laerm;56835;52.198;4.826;2023-04-06T00:18:22;55.19;53.30;57.27;;
66458;Laerm;56835;52.198;4.826;2023-04-06T00:18:32;55.10;53.48;56.76;;
66458;Laerm;56835;52.198;4.826;2023-04-06T00:18:43;55.07;53.16;56.82;;
66458;Laerm;56835;52.198;4.826;2023-04-06T00:18:53;55.09;53.13;56.39;;
66458;Laerm;56835;52.198;4.826;2023-04-06T00:19:03;55.10;53.17;56.80;;
66458;Laerm;56835;52.198;4.826;2023-04-06T00:19:14;55.14;53.77;56.87;;
66458;Laerm;56835;52.198;4.826;2023-04-06T00:19:24;55.12;52.87;56.68;;
66458;Laerm;56835;52.198;4.826;2023-04-06T00:19:34;55.07;53.29;56.32;;
66458;Laerm;56835;52.198;4.826;2023-04-06T00:19:44;55.06;52.52;56.53;;
66458;Laerm;56835;52.198;4.826;2023-04-06T00:19:55;55.11;53.07;56.70;;
66458;Laerm;56835;52.198;4.826;2023-04-06T00:20:05;55.06;52.91;56.32;;
66458;Laerm;56835;52.198;4.826;2023-04-06T00:20:16;55.06;53.21;56.41;;
66458;Laerm;56835;52.198;4.826;2023-04-06T00:20:26;55.09;52.97;56.37;;
66458;Laerm;56835;52.198;4.826;2023-04-06T00:20:37;55.07;53.17;56.51;;
66458;Laerm;56835;52.198;4.826;2023-04-06T00:20:47;55.07;53.25;56.79;;
66458;Laerm;56835;52.198;4.826;2023-04-06T00:20:57;55.09;52.93;56.71;;
66458;Laerm;56835;52.198;4.826;2023-04-06T00:21:08;55.06;53.32;56.14;;
66458;Laerm;56835;52.198;4.826;2023-04-06T00:21:18;55.07;53.58;56.49;;
66458;Laerm;56835;52.198;4.826;2023-04-06T00:21:28;55.05;53.23;56.67;;
66458;Laerm;56835;52.198;4.826;2023-04-06T00:21:39;55.11;52.97;56.73;;
66458;Laerm;56835;52.198;4.826;2023-04-06T00:21:49;55.09;52.90;56.47;;
66458;Laerm;56835;52.198;4.826;2023-04-06T00:21:59;55.05;53.25;56.34;;
66458;Laerm;56835;52.198;4.826;2023-04-06T00:22:12;55.11;53.07;56.29;;
66458;Laerm;56835;52.198;4.826;2023-04-06T00:22:22;55.15;53.24;56.78;;
66458;Laerm;56835;52.198;4.826;2023-04-06T00:22:33;55.11;53.57;56.88;;
66458;Laerm;56835;52.198;4.826;2023-04-06T00:22:43;55.09;52.94;56.57;;
66458;Laerm;56835;52.198;4.826;2023-04-06T00:22:54;55.09;52.75;56.46;;
66458;Laerm;56835;52.198;4.826;2023-04-06T00:23:04;55.07;53.45;56.48;;
66458;Laerm;56835;52.198;4.826;2023-04-06T00:23:15;55.12;53.74;56.62;;
66458;Laerm;56835;52.198;4.826;2023-04-06T00:23:25;55.14;53.09;56.85;;
66458;Laerm;56835;52.198;4.826;2023-04-06T00:23:36;55.07;53.37;56.44;;
66458;Laerm;56835;52.198;4.826;2023-04-06T00:23:46;55.09;52.68;56.57;;
66458;Laerm;56835;52.198;4.826;2023-04-06T00:23:56;55.10;53.40;56.54;;
66458;Laerm;56835;52.198;4.826;2023-04-06T00:24:06;55.09;52.75;56.49;;
66458;Laerm;56835;52.198;4.826;2023-04-06T00:24:17;55.11;53.20;57.04;;
66458;Laerm;56835;52.198;4.826;2023-04-06T00:24:27;55.14;52.43;56.45;;
66458;Laerm;56835;52.198;4.826;2023-04-06T00:24:37;55.14;53.22;57.02;;
66458;Laerm;56835;52.198;4.826;2023-04-06T00:24:48;55.05;52.78;56.23;;
66458;Laerm;56835;52.198;4.826;2023-04-06T00:24:58;55.12;53.07;57.01;;
66458;Laerm;56835;52.198;4.826;2023-04-06T00:25:08;55.13;52.94;56.48;;
66458;Laerm;56835;52.198;4.826;2023-04-06T00:25:20;55.26;53.63;56.84;;
66458;Laerm;56835;52.198;4.826;2023-04-06T00:25:30;55.15;52.90;56.73;;
66458;Laerm;56835;52.198;4.826;2023-04-06T00:25:40;55.04;53.25;56.56;;
66458;Laerm;56835;52.198;4.826;2023-04-06T00:25:50;55.12;53.21;56.64;;
66458;Laerm;56835;52.198;4.826;2023-04-06T00:26:01;55.15;53.32;56.86;;
66458;Laerm;56835;52.198;4.826;2023-04-06T00:26:11;55.08;53.17;56.47;;
66458;Laerm;56835;52.198;4.826;2023-04-06T00:26:21;55.08;53.41;56.75;;
66458;Laerm;56835;52.198;4.826;2023-04-06T00:26:31;55.08;53.42;56.56;;
66458;Laerm;56835;52.198;4.826;2023-04-06T00:26:42;55.24;53.01;56.99;;
66458;Laerm;56835;52.198;4.826;2023-04-06T00:26:52;55.17;53.21;56.64;;
66458;Laerm;56835;52.198;4.826;2023-04-06T00:27:02;55.12;53.14;56.69;;
66458;Laerm;56835;52.198;4.826;2023-04-06T00:27:13;55.17;52.92;56.69;;
66458;Laerm;56835;52.198;4.826;2023-04-06T00:27:23;55.19;52.43;56.66;;
66458;Laerm;56835;52.198;4.826;2023-04-06T00:27:33;55.09;53.18;56.70;;
66458;Laerm;56835;52.198;4.826;2023-04-06T00:27:43;55.14;53.11;56.72;;
66458;Laerm;56835;52.198;4.826;2023-04-06T00:27:54;55.06;53.43;56.36;;
66458;Laerm;56835;52.198;4.826;2023-04-06T00:28:04;55.10;52.86;56.58;;
66458;Laerm;56835;52.198;4.826;2023-04-06T00:28:14;55.09;53.36;56.66;;
66458;Laerm;56835;52.198;4.826;2023-04-06T00:28:25;55.13;53.28;56.51;;
66458;Laerm;56835;52.198;4.826;2023-04-06T00:28:36;55.24;53.12;56.78;;
66458;Laerm;56835;52.198;4.826;2023-04-06T00:28:47;55.17;52.90;56.65;;
66458;Laerm;56835;52.198;4.826;2023-04-06T00:28:57;55.25;53.00;56.85;;
66458;Laerm;56835;52.198;4.826;2023-04-06T00:29:08;55.19;53.13;56.84;;
66458;Laerm;56835;52.198;4.826;2023-04-06T00:29:19;55.12;52.24;56.87;;
66458;Laerm;56835;52.198;4.826;2023-04-06T00:29:29;55.09;53.05;56.32;;
66458;Laerm;56835;52.198;4.826;2023-04-06T00:29:40;55.03;52.76;56.78;;
66458;Laerm;56835;52.198;4.826;2023-04-06T00:29:50;55.06;52.96;56.40;;
66458;Laerm;56835;52.198;4.826;2023-04-06T00:30:01;55.05;53.17;56.45;;
66458;Laerm;56835;52.198;4.826;2023-04-06T00:30:11;55.05;53.02;56.74;;
66458;Laerm;56835;52.198;4.826;2023-04-06T00:30:21;55.04;53.19;56.59;;
66458;Laerm;56835;52.198;4.826;2023-04-06T00:30:32;55.04;52.88;56.40;;
66458;Laerm;56835;52.198;4.826;2023-04-06T00:30:42;55.03;53.09;56.44;;
66458;Laerm;56835;52.198;4.826;2023-04-06T00:30:52;55.05;53.34;56.34;;
66458;Laerm;56835;52.198;4.826;2023-04-06T00:31:05;54.99;52.48;56.73;;
66458;Laerm;56835;52.198;4.826;2023-04-06T00:31:15;55.08;53.28;56.90;;
66458;Laerm;56835;52.198;4.826;2023-04-06T00:31:25;55.09;53.57;56.52;;
66458;Laerm;56835;52.198;4.826;2023-04-06T00:31:35;55.06;53.28;56.61;;
66458;Laerm;56835;52.198;4.826;2023-04-06T00:31:46;55.06;52.82;56.56;;
66458;Laerm;56835;52.198;4.826;2023-04-06T00:31:56;55.01;52.66;56.38;;
66458;Laerm;56835;52.198;4.826;2023-04-06T00:32:06;55.03;53.27;56.55;;
66458;Laerm;56835;52.198;4.826;2023-04-06T00:32:17;55.01;53.20;56.62;;
66458;Laerm;56835;52.198;4.826;2023-04-06T00:32:27;55.14;53.30;56.64;;
66458;Laerm;56835;52.198;4.826;2023-04-06T00:32:37;55.00;53.00;56.57;;
66458;Laerm;56835;52.198;4.826;2023-04-06T00:32:48;55.07;53.12;56.22;;
66458;Laerm;56835;52.198;4.826;2023-04-06T00:32:58;55.14;53.20;56.65;;
66458;Laerm;56835;52.198;4.826;2023-04-06T00:33:08;55.14;52.74;56.89;;
66458;Laerm;56835;52.198;4.826;2023-04-06T00:33:19;55.09;53.04;56.71;;
66458;Laerm;56835;52.198;4.826;2023-04-06T00:33:29;55.06;53.09;56.67;;
66458;Laerm;56835;52.198;4.826;2023-04-06T00:33:40;55.04;52.77;56.53;;
66458;Laerm;56835;52.198;4.826;2023-04-06T00:33:50;55.08;53.53;56.18;;
66458;Laerm;56835;52.198;4.826;2023-04-06T00:34:00;55.01;53.11;56.62;;
66458;Laerm;56835;52.198;4.826;2023-04-06T00:34:10;55.02;52.77;56.58;;
66458;Laerm;56835;52.198;4.826;2023-04-06T00:34:21;55.05;53.21;56.74;;
66458;Laerm;56835;52.198;4.826;2023-04-06T00:34:31;55.00;53.05;56.50;;
66458;Laerm;56835;52.198;4.826;2023-04-06T00:34:41;54.98;53.36;56.23;;
66458;Laerm;56835;52.198;4.826;2023-04-06T00:34:51;55.01;52.95;56.60;;
66458;Laerm;56835;52.198;4.826;2023-04-06T00:35:02;55.07;53.48;56.48;;
66458;Laerm;56835;52.198;4.826;2023-04-06T00:35:13;55.00;53.29;56.59;;
66458;Laerm;56835;52.198;4.826;2023-04-06T00:35:25;55.04;53.07;56.47;;
66458;Laerm;56835;52.198;4.826;2023-04-06T00:35:35;54.99;52.73;56.54;;
66458;Laerm;56835;52.198;4.826;2023-04-06T00:35:45;55.06;53.31;56.80;;
66458;Laerm;56835;52.198;4.826;2023-04-06T00:35:55;55.17;53.32;56.70;;
66458;Laerm;56835;52.198;4.826;2023-04-06T00:36:06;55.09;53.08;56.53;;
66458;Laerm;56835;52.198;4.826;2023-04-06T00:36:16;54.99;52.98;56.32;;
66458;Laerm;56835;52.198;4.826;2023-04-06T00:36:26;55.10;53.27;56.45;;
66458;Laerm;56835;52.198;4.826;2023-04-06T00:36:36;55.06;52.67;56.20;;
66458;Laerm;56835;52.198;4.826;2023-04-06T00:36:47;55.02;53.44;56.46;;
66458;Laerm;56835;52.198;4.826;2023-04-06T00:36:57;55.04;53.05;56.49;;
66458;Laerm;56835;52.198;4.826;2023-04-06T00:37:07;55.04;53.17;56.22;;
66458;Laerm;56835;52.198;4.826;2023-04-06T00:37:17;55.00;52.96;56.55;;
66458;Laerm;56835;52.198;4.826;2023-04-06T00:37:29;55.06;52.79;56.40;;
66458;Laerm;56835;52.198;4.826;2023-04-06T00:37:39;55.02;52.88;56.96;;
66458;Laerm;56835;52.198;4.826;2023-04-06T00:37:49;55.09;53.30;56.54;;
66458;Laerm;56835;52.198;4.826;2023-04-06T00:38:00;54.99;52.79;56.52;;
66458;Laerm;56835;52.198;4.826;2023-04-06T00:38:11;55.04;52.48;56.58;;
66458;Laerm;56835;52.198;4.826;2023-04-06T00:38:21;55.01;53.04;56.52;;
66458;Laerm;56835;52.198;4.826;2023-04-06T00:38:31;55.03;53.07;56.67;;
66458;Laerm;56835;52.198;4.826;2023-04-06T00:38:42;54.99;52.98;56.33;;
66458;Laerm;56835;52.198;4.826;2023-04-06T00:38:52;54.99;52.88;56.80;;
66458;Laerm;56835;52.198;4.826;2023-04-06T00:39:02;55.07;53.43;56.46;;
66458;Laerm;56835;52.198;4.826;2023-04-06T00:39:12;55.03;52.41;56.48;;
66458;Laerm;56835;52.198;4.826;2023-04-06T00:39:23;54.96;52.51;56.17;;
66458;Laerm;56835;52.198;4.826;2023-04-06T00:39:33;55.00;52.99;56.57;;
66458;Laerm;56835;52.198;4.826;2023-04-06T00:39:43;55.03;53.25;56.51;;
66458;Laerm;56835;52.198;4.826;2023-04-06T00:39:53;54.98;52.92;56.35;;
66458;Laerm;56835;52.198;4.826;2023-04-06T00:40:04;55.01;53.04;56.46;;
66458;Laerm;56835;52.198;4.826;2023-04-06T00:40:14;55.00;52.85;56.59;;
66458;Laerm;56835;52.198;4.826;2023-04-06T00:40:25;55.06;53.01;56.43;;
66458;Laerm;56835;52.198;4.826;2023-04-06T00:40:37;55.03;53.00;56.53;;
66458;Laerm;56835;52.198;4.826;2023-04-06T00:40:49;55.05;52.92;56.58;;
66458;Laerm;56835;52.198;4.826;2023-04-06T00:40:59;55.00;53.03;56.27;;
66458;Laerm;56835;52.198;4.826;2023-04-06T00:41:10;55.05;53.13;56.38;;
66458;Laerm;56835;52.198;4.826;2023-04-06T00:41:20;55.02;53.40;56.52;;
66458;Laerm;56835;52.198;4.826;2023-04-06T00:41:30;55.00;52.39;56.47;;
66458;Laerm;56835;52.198;4.826;2023-04-06T00:41:42;55.00;52.14;56.30;;
66458;Laerm;56835;52.198;4.826;2023-04-06T00:41:55;55.03;53.14;56.67;;
66458;Laerm;56835;52.198;4.826;2023-04-06T00:42:09;54.99;53.47;56.96;;
66458;Laerm;56835;52.198;4.826;2023-04-06T00:42:21;55.11;53.11;56.53;;
66458;Laerm;56835;52.198;4.826;2023-04-06T00:42:35;55.10;52.95;56.61;;
66458;Laerm;56835;52.198;4.826;2023-04-06T00:42:45;55.01;52.81;56.38;;
66458;Laerm;56835;52.198;4.826;2023-04-06T00:42:56;54.99;53.10;56.54;;
66458;Laerm;56835;52.198;4.826;2023-04-06T00:43:06;54.97;52.85;56.38;;
66458;Laerm;56835;52.198;4.826;2023-04-06T00:43:16;55.02;53.54;56.51;;
66458;Laerm;56835;52.198;4.826;2023-04-06T00:43:27;55.01;52.99;56.57;;
66458;Laerm;56835;52.198;4.826;2023-04-06T00:43:37;54.99;53.06;56.55;;
66458;Laerm;56835;52.198;4.826;2023-04-06T00:43:47;55.04;53.18;56.44;;
66458;Laerm;56835;52.198;4.826;2023-04-06T00:43:57;54.93;53.02;56.34;;
66458;Laerm;56835;52.198;4.826;2023-04-06T00:44:08;54.98;52.86;56.42;;
66458;Laerm;56835;52.198;4.826;2023-04-06T00:44:19;55.03;53.20;56.55;;
66458;Laerm;56835;52.198;4.826;2023-04-06T00:44:29;55.00;52.95;56.48;;
66458;Laerm;56835;52.198;4.826;2023-04-06T00:44:40;55.00;53.41;56.19;;
66458;Laerm;56835;52.198;4.826;2023-04-06T00:44:53;54.99;53.27;56.75;;
66458;Laerm;56835;52.198;4.826;2023-04-06T00:45:04;54.98;52.98;56.57;;
66458;Laerm;56835;52.198;4.826;2023-04-06T00:45:14;55.02;52.61;56.40;;
66458;Laerm;56835;52.198;4.826;2023-04-06T00:45:25;54.99;52.89;56.45;;
66458;Laerm;56835;52.198;4.826;2023-04-06T00:45:35;54.98;53.24;56.24;;
66458;Laerm;56835;52.198;4.826;2023-04-06T00:45:45;55.09;52.58;56.46;;
66458;Laerm;56835;52.198;4.826;2023-04-06T00:45:56;55.07;52.52;56.32;;
66458;Laerm;56835;52.198;4.826;2023-04-06T00:46:06;55.08;53.43;56.51;;
66458;Laerm;56835;52.198;4.826;2023-04-06T00:46:16;55.14;53.42;56.38;;
66458;Laerm;56835;52.198;4.826;2023-04-06T00:46:27;55.11;53.19;56.38;;
66458;Laerm;56835;52.198;4.826;2023-04-06T00:46:38;55.06;52.64;56.35;;
66458;Laerm;56835;52.198;4.826;2023-04-06T00:46:48;55.04;52.99;56.61;;
66458;Laerm;56835;52.198;4.826;2023-04-06T00:46:58;54.99;52.90;56.70;;
66458;Laerm;56835;52.198;4.826;2023-04-06T00:47:09;55.04;52.69;56.46;;
66458;Laerm;56835;52.198;4.826;2023-04-06T00:47:19;55.00;53.29;56.48;;
66458;Laerm;56835;52.198;4.826;2023-04-06T00:47:30;55.00;53.09;56.62;;
66458;Laerm;56835;52.198;4.826;2023-04-06T00:47:40;55.04;52.53;56.46;;
66458;Laerm;56835;52.198;4.826;2023-04-06T00:47:50;55.09;52.27;56.48;;
66458;Laerm;56835;52.198;4.826;2023-04-06T00:48:01;55.07;52.78;56.50;;
66458;Laerm;56835;52.198;4.826;2023-04-06T00:48:15;55.03;53.09;56.37;;
66458;Laerm;56835;52.198;4.826;2023-04-06T00:48:26;54.99;53.32;56.35;;
66458;Laerm;56835;52.198;4.826;2023-04-06T00:48:37;55.03;53.09;56.29;;
66458;Laerm;56835;52.198;4.826;2023-04-06T00:48:47;54.99;52.54;56.63;;
66458;Laerm;56835;52.198;4.826;2023-04-06T00:48:57;55.00;52.96;56.29;;
66458;Laerm;56835;52.198;4.826;2023-04-06T00:49:07;55.06;52.61;56.80;;
66458;Laerm;56835;52.198;4.826;2023-04-06T00:49:18;55.03;52.70;56.50;;
66458;Laerm;56835;52.198;4.826;2023-04-06T00:49:28;54.96;52.86;56.53;;
66458;Laerm;56835;52.198;4.826;2023-04-06T00:49:38;54.96;53.10;56.91;;
66458;Laerm;56835;52.198;4.826;2023-04-06T00:49:48;54.96;51.96;56.18;;
66458;Laerm;56835;52.198;4.826;2023-04-06T00:49:59;54.96;53.06;56.37;;
66458;Laerm;56835;52.198;4.826;2023-04-06T00:50:09;55.05;53.04;56.43;;
66458;Laerm;56835;52.198;4.826;2023-04-06T00:50:20;54.96;52.84;56.61;;
66458;Laerm;56835;52.198;4.826;2023-04-06T00:50:30;54.98;52.62;56.26;;
66458;Laerm;56835;52.198;4.826;2023-04-06T00:50:40;54.98;52.48;56.71;;
66458;Laerm;56835;52.198;4.826;2023-04-06T00:50:51;55.00;52.72;56.51;;
66458;Laerm;56835;52.198;4.826;2023-04-06T00:51:01;54.96;53.30;56.16;;
66458;Laerm;56835;52.198;4.826;2023-04-06T00:51:11;55.00;52.58;56.63;;
66458;Laerm;56835;52.198;4.826;2023-04-06T00:51:22;54.91;52.93;56.49;;
66458;Laerm;56835;52.198;4.826;2023-04-06T00:51:32;54.98;53.18;56.79;;
66458;Laerm;56835;52.198;4.826;2023-04-06T00:51:42;54.97;53.32;56.36;;
66458;Laerm;56835;52.198;4.826;2023-04-06T00:51:53;55.01;52.83;56.26;;
66458;Laerm;56835;52.198;4.826;2023-04-06T00:52:03;54.99;52.95;56.51;;
66458;Laerm;56835;52.198;4.826;2023-04-06T00:52:13;55.00;53.12;56.47;;
66458;Laerm;56835;52.198;4.826;2023-04-06T00:52:24;54.98;52.84;56.48;;
66458;Laerm;56835;52.198;4.826;2023-04-06T00:52:35;54.99;52.27;56.34;;
66458;Laerm;56835;52.198;4.826;2023-04-06T00:52:45;55.04;53.21;56.60;;
66458;Laerm;56835;52.198;4.826;2023-04-06T00:52:55;55.09;53.39;56.49;;
66458;Laerm;56835;52.198;4.826;2023-04-06T00:53:06;55.05;53.13;56.27;;
66458;Laerm;56835;52.198;4.826;2023-04-06T00:53:16;55.02;52.73;56.38;;
66458;Laerm;56835;52.198;4.826;2023-04-06T00:53:27;54.96;53.17;56.67;;
66458;Laerm;56835;52.198;4.826;2023-04-06T00:53:37;54.97;53.44;56.35;;
66458;Laerm;56835;52.198;4.826;2023-04-06T00:53:48;54.94;53.15;56.21;;
66458;Laerm;56835;52.198;4.826;2023-04-06T00:53:58;54.96;53.34;56.67;;
66458;Laerm;56835;52.198;4.826;2023-04-06T00:54:08;54.93;52.95;56.58;;
66458;Laerm;56835;52.198;4.826;2023-04-06T00:54:19;54.99;53.21;56.70;;
66458;Laerm;56835;52.198;4.826;2023-04-06T00:54:29;54.96;52.66;56.23;;
66458;Laerm;56835;52.198;4.826;2023-04-06T00:54:40;55.00;52.82;56.33;;
66458;Laerm;56835;52.198;4.826;2023-04-06T00:54:50;54.94;53.28;56.24;;
66458;Laerm;56835;52.198;4.826;2023-04-06T00:55:01;54.95;53.39;56.82;;
66458;Laerm;56835;52.198;4.826;2023-04-06T00:55:11;55.00;52.94;56.24;;
66458;Laerm;56835;52.198;4.826;2023-04-06T00:55:22;54.94;52.78;56.38;;
66458;Laerm;56835;52.198;4.826;2023-04-06T00:55:32;54.95;53.25;56.33;;
66458;Laerm;56835;52.198;4.826;2023-04-06T00:55:42;54.96;53.05;56.46;;
66458;Laerm;56835;52.198;4.826;2023-04-06T00:55:52;54.94;52.83;56.34;;
66458;Laerm;56835;52.198;4.826;2023-04-06T00:56:03;54.96;53.33;56.66;;
66458;Laerm;56835;52.198;4.826;2023-04-06T00:56:13;55.04;53.13;56.47;;
66458;Laerm;56835;52.198;4.826;2023-04-06T00:56:23;55.05;53.34;56.74;;
66458;Laerm;56835;52.198;4.826;2023-04-06T00:56:34;55.06;53.44;56.61;;
66458;Laerm;56835;52.198;4.826;2023-04-06T00:56:45;55.03;52.20;56.53;;
66458;Laerm;56835;52.198;4.826;2023-04-06T00:56:55;55.10;53.37;56.72;;
66458;Laerm;56835;52.198;4.826;2023-04-06T00:57:05;55.09;53.05;56.37;;
66458;Laerm;56835;52.198;4.826;2023-04-06T00:57:15;55.07;52.71;56.62;;
66458;Laerm;56835;52.198;4.826;2023-04-06T00:57:26;54.96;53.36;56.16;;
66458;Laerm;56835;52.198;4.826;2023-04-06T00:57:36;55.02;53.06;56.43;;
66458;Laerm;56835;52.198;4.826;2023-04-06T00:57:46;54.99;53.15;56.60;;
66458;Laerm;56835;52.198;4.826;2023-04-06T00:57:58;54.97;53.56;56.47;;
66458;Laerm;56835;52.198;4.826;2023-04-06T00:58:09;55.01;52.15;56.59;;
66458;Laerm;56835;52.198;4.826;2023-04-06T00:58:19;54.94;52.90;56.59;;
66458;Laerm;56835;52.198;4.826;2023-04-06T00:58:30;54.90;53.10;56.34;;
66458;Laerm;56835;52.198;4.826;2023-04-06T00:58:40;54.89;52.70;56.22;;